Terminal Aerodrome Forecast
Issued by NWS

Home | Current Version | Previous Version | Text Only | Print | Product List | Glossary On
Versions: 1 2 3 4 5 6 7 8 9 10 11 12
000
FTUS46 KSGX 222320
TAFONT
TAF
KONT 222320Z 2300/2406 26012KT P6SM FEW080 SCT250
     FM230400 VRB06KT P6SM SCT250
     FM232000 26012G18KT P6SM SCT080 SCT250
     FM240400 VRB05KT P6SM SCT250=

USA.gov is the U.S. government's official web portal to all federal, state and local government web resources and services.